createdAt,value
2022-11-16T00:01:18.787Z,33.25
2022-11-16T00:03:50.918Z,33.50
2022-11-16T00:06:22.190Z,31.50
2022-11-16T00:08:58.186Z,32.00
2022-11-16T00:11:28.648Z,31.25
2022-11-16T00:13:59.054Z,29.75
2022-11-16T00:16:30.609Z,29.00
2022-11-16T00:19:03.164Z,26.00
2022-11-16T00:21:37.272Z,28.25
2022-11-16T00:24:07.925Z,26.25
2022-11-16T00:26:38.934Z,26.75
2022-11-16T00:29:17.730Z,25.25
2022-11-16T00:31:49.000Z,27.25
2022-11-16T00:34:19.845Z,26.00
2022-11-16T00:36:53.601Z,32.25
2022-11-16T00:39:24.094Z,34.50
2022-11-16T00:41:54.878Z,32.75
2022-11-16T00:44:25.722Z,34.00
2022-11-16T00:46:56.052Z,34.50
2022-11-16T00:49:26.491Z,29.25
2022-11-16T00:51:57.670Z,33.75
2022-11-16T00:54:28.170Z,31.25
2022-11-16T00:56:58.567Z,28.00
2022-11-16T00:59:28.871Z,26.00
2022-11-16T01:02:00.125Z,26.50
2022-11-16T01:04:30.499Z,19.25
2022-11-16T01:07:01.099Z,24.00
2022-11-16T01:09:31.617Z,24.75
2022-11-16T01:12:01.882Z,22.25
2022-11-16T01:14:33.111Z,26.25
2022-11-16T01:17:04.612Z,27.25
2022-11-16T01:19:36.808Z,25.75
2022-11-16T01:22:07.678Z,25.50
2022-11-16T01:24:38.254Z,23.25
2022-11-16T01:27:08.528Z,21.00
2022-11-16T01:29:39.032Z,17.25
2022-11-16T01:32:09.882Z,18.25
2022-11-16T01:34:40.863Z,15.25
2022-11-16T01:37:11.745Z,16.00
2022-11-16T01:39:42.176Z,18.50
2022-11-16T01:42:36.189Z,17.00
2022-11-16T01:45:29.895Z,18.75
2022-11-16T01:48:00.365Z,17.50
2022-11-16T01:50:31.355Z,17.25
2022-11-16T01:53:05.246Z,18.75
2022-11-16T01:55:37.541Z,23.00
2022-11-16T01:58:28.923Z,19.75
2022-11-16T02:00:59.316Z,21.00
2022-11-16T02:03:29.754Z,23.00
2022-11-16T02:06:17.450Z,8.75
2022-11-16T02:09:08.651Z,24.00
2022-11-16T02:11:57.655Z,26.00
2022-11-16T02:14:37.006Z,24.00
2022-11-16T02:17:27.380Z,18.25
2022-11-16T02:23:18.231Z,19.75
2022-11-16T02:26:07.700Z,22.25
2022-11-16T02:29:03.132Z,28.00
2022-11-16T02:31:40.274Z,25.75
2022-11-16T02:34:22.017Z,32.75
2022-11-16T02:36:55.880Z,29.50
2022-11-16T02:39:46.794Z,32.25
2022-11-16T02:42:20.222Z,25.50
2022-11-16T02:44:53.631Z,27.00
2022-11-16T02:47:26.819Z,27.00
2022-11-16T02:50:00.110Z,24.25
2022-11-16T02:52:30.516Z,24.00
2022-11-16T02:55:01.238Z,21.25
2022-11-16T02:57:48.476Z,22.00
2022-11-16T03:00:24.465Z,23.00
2022-11-16T03:03:12.135Z,23.50
2022-11-16T03:05:51.861Z,18.00
2022-11-16T03:08:34.258Z,22.75
2022-11-16T03:11:09.014Z,23.50
2022-11-16T03:13:42.046Z,26.00
2022-11-16T03:16:18.460Z,28.25
2022-11-16T03:18:51.695Z,26.00
2022-11-16T03:21:35.385Z,28.00
2022-11-16T03:24:07.405Z,30.00
2022-11-16T03:26:57.874Z,24.50
2022-11-16T03:32:28.595Z,29.25
2022-11-16T03:35:08.983Z,24.75
2022-11-16T03:37:41.970Z,24.75
2022-11-16T03:40:17.498Z,23.50
2022-11-16T03:42:50.172Z,21.00
2022-11-16T03:45:21.162Z,20.50
2022-11-16T03:47:52.058Z,19.00
2022-11-16T03:50:22.302Z,19.00
2022-11-16T03:52:52.870Z,20.75
2022-11-16T03:55:23.167Z,20.25
2022-11-16T03:57:53.310Z,17.25
2022-11-16T04:00:23.433Z,22.50
2022-11-16T04:02:53.755Z,21.75
2022-11-16T04:05:24.685Z,24.00
2022-11-16T04:07:55.111Z,24.25
2022-11-16T04:10:25.764Z,24.50
2022-11-16T04:13:00.300Z,24.00
2022-11-16T04:15:30.645Z,26.50
2022-11-16T04:18:02.006Z,34.00
2022-11-16T04:20:32.309Z,35.75
2022-11-16T04:23:11.742Z,31.50
2022-11-16T04:25:44.589Z,32.00
2022-11-16T04:28:20.207Z,29.75
2022-11-16T04:30:56.932Z,32.25
2022-11-16T04:33:30.893Z,31.50
2022-11-16T04:36:01.804Z,36.50
2022-11-16T04:38:32.803Z,31.00
2022-11-16T04:41:03.304Z,28.75
2022-11-16T04:43:34.089Z,24.00
2022-11-16T04:46:04.781Z,20.25
2022-11-16T04:48:35.554Z,19.00
2022-11-16T04:51:13.235Z,18.25
2022-11-16T04:53:44.308Z,19.00
2022-11-16T04:56:14.606Z,18.25
2022-11-16T04:58:44.855Z,17.50
2022-11-16T05:01:15.994Z,24.00
2022-11-16T05:03:46.642Z,18.50
2022-11-16T05:06:16.824Z,20.50
2022-11-16T05:08:47.033Z,19.50
2022-11-16T05:11:17.219Z,18.25
2022-11-16T05:13:48.013Z,19.00
2022-11-16T05:16:21.104Z,19.25
2022-11-16T05:18:51.420Z,20.25
2022-11-16T05:21:24.005Z,19.50
2022-11-16T05:23:54.877Z,23.50
2022-11-16T05:26:25.112Z,21.25
2022-11-16T05:28:55.238Z,22.25
2022-11-16T05:31:26.698Z,21.00
2022-11-16T05:33:57.170Z,24.00
2022-11-16T05:36:28.757Z,26.00
2022-11-16T05:39:01.824Z,29.00
2022-11-16T05:41:33.134Z,28.75
2022-11-16T05:44:03.771Z,33.25
2022-11-16T05:46:37.096Z,35.00
2022-11-16T05:49:09.168Z,32.50
2022-11-16T05:51:40.818Z,35.00
2022-11-16T05:54:19.848Z,39.00
2022-11-16T05:56:50.933Z,41.00
2022-11-16T05:59:41.964Z,35.25
2022-11-16T06:02:12.461Z,35.25
2022-11-16T06:04:42.744Z,36.75
2022-11-16T06:07:12.994Z,33.25
2022-11-16T06:09:43.503Z,37.00
2022-11-16T06:12:20.375Z,37.00
2022-11-16T06:17:33.261Z,39.75
2022-11-16T06:20:14.728Z,37.75
2022-11-16T06:22:55.043Z,38.00
2022-11-16T06:25:46.875Z,33.25
2022-11-16T06:29:44.572Z,37.00
2022-11-16T06:38:03.804Z,33.25
2022-11-16T06:40:39.741Z,32.00
2022-11-16T06:43:10.045Z,33.00
2022-11-16T06:45:40.170Z,32.25
2022-11-16T06:48:10.765Z,28.75
2022-11-16T06:50:56.231Z,29.00
2022-11-16T06:53:36.300Z,28.00
2022-11-16T07:05:16.344Z,28.00
2022-11-16T07:11:32.033Z,27.25
2022-11-16T07:14:23.693Z,32.00
2022-11-16T07:16:35.965Z,33.25
2022-11-16T07:19:09.539Z,29.00
2022-11-16T07:21:40.252Z,26.75
2022-11-16T07:24:11.650Z,26.75
2022-11-16T07:33:54.843Z,22.75
2022-11-16T07:36:29.273Z,23.25
2022-11-16T07:38:59.793Z,22.75
2022-11-16T07:41:30.002Z,16.00
2022-11-16T07:44:02.568Z,25.50
2022-11-16T07:46:48.938Z,24.00
2022-11-16T07:49:10.938Z,25.25
2022-11-16T07:51:37.502Z,29.00
2022-11-16T07:54:07.678Z,26.00
2022-11-16T07:56:38.516Z,30.25
2022-11-16T07:59:12.161Z,30.50
2022-11-16T08:01:42.991Z,31.25
2022-11-16T08:04:13.338Z,29.25
2022-11-16T08:10:09.467Z,26.00
2022-11-16T08:12:40.713Z,23.00
2022-11-16T08:15:11.771Z,23.00
2022-11-16T08:17:42.458Z,19.00
2022-11-16T08:23:47.042Z,20.75
2022-11-16T08:40:20.699Z,19.50
2022-11-16T08:43:18.645Z,19.50
2022-11-16T08:49:07.216Z,19.25
2022-11-16T08:51:42.679Z,11.00
2022-11-16T08:54:16.258Z,16.50
2022-11-16T08:56:46.663Z,16.00
2022-11-16T08:59:17.564Z,18.00
2022-11-16T09:01:48.200Z,18.25
2022-11-16T09:04:19.170Z,12.75
2022-11-16T09:06:51.211Z,19.75
2022-11-16T09:09:21.935Z,18.50
2022-11-16T09:11:57.876Z,16.25
2022-11-16T09:14:28.892Z,17.50
2022-11-16T09:16:59.767Z,17.50
2022-11-16T09:19:30.380Z,16.25
2022-11-16T09:22:01.592Z,13.25
2022-11-16T09:24:32.453Z,18.75
2022-11-16T09:27:02.760Z,16.75
2022-11-16T09:29:33.394Z,16.50
2022-11-16T09:32:03.727Z,15.50
2022-11-16T09:34:37.109Z,16.25
2022-11-16T09:37:08.189Z,17.25
2022-11-16T09:39:38.577Z,18.25
2022-11-16T09:42:34.387Z,16.00
2022-11-16T09:46:18.345Z,18.00
2022-11-16T09:51:06.528Z,19.25
2022-11-16T09:53:49.859Z,21.50
2022-11-16T09:56:40.557Z,21.00
2022-11-16T09:59:19.316Z,20.00
2022-11-16T10:02:03.264Z,21.00
2022-11-16T10:04:57.739Z,20.25
2022-11-16T10:10:15.869Z,26.75
2022-11-16T10:12:55.412Z,26.00
2022-11-16T10:15:44.524Z,30.50
2022-11-16T10:18:27.302Z,29.75
2022-11-16T10:21:21.576Z,28.00
2022-11-16T10:24:02.081Z,25.75
2022-11-16T10:26:57.425Z,27.00
2022-11-16T10:32:21.107Z,31.00
2022-11-16T10:34:55.167Z,36.75
2022-11-16T10:37:37.309Z,35.00
2022-11-16T10:40:26.577Z,35.50
2022-11-16T10:43:05.614Z,38.25
2022-11-16T10:45:42.333Z,24.25
2022-11-16T10:48:30.901Z,39.50
2022-11-16T10:51:03.324Z,37.75
2022-11-16T10:53:39.731Z,37.00
2022-11-16T10:56:37.343Z,31.25
2022-11-16T10:59:14.143Z,30.00
2022-11-16T11:01:53.053Z,29.25
2022-11-16T11:04:27.994Z,30.75
2022-11-16T11:07:01.010Z,32.00
2022-11-16T11:09:37.241Z,31.25
2022-11-16T11:12:18.952Z,26.00
2022-11-16T11:18:27.829Z,36.00
2022-11-16T11:21:07.644Z,32.00
2022-11-16T11:23:42.388Z,29.00
2022-11-16T11:26:15.842Z,29.00
2022-11-16T11:28:51.287Z,30.00
2022-11-16T11:31:25.205Z,31.25
2022-11-16T11:33:59.803Z,28.50
2022-11-16T11:36:35.630Z,26.50
2022-11-16T11:39:14.408Z,24.25
2022-11-16T11:41:47.696Z,19.00
2022-11-16T11:44:19.777Z,14.00
2022-11-16T11:49:40.130Z,12.75
2022-11-16T11:52:15.058Z,13.75
2022-11-16T11:54:48.871Z,10.00
2022-11-16T11:57:24.588Z,14.50
2022-11-16T11:59:56.845Z,10.00
2022-11-16T12:02:46.584Z,14.50
2022-11-16T12:05:28.417Z,12.75
2022-11-16T12:08:18.253Z,11.75
2022-11-16T12:10:57.826Z,13.25
2022-11-16T12:13:49.742Z,27.00
2022-11-16T12:16:41.291Z,18.50
2022-11-16T12:19:31.045Z,21.00
2022-11-16T12:22:39.916Z,19.00
2022-11-16T12:25:32.123Z,22.50
2022-11-16T12:31:14.666Z,24.00
2022-11-16T12:36:25.924Z,29.50
2022-11-16T12:39:07.170Z,28.25
2022-11-16T12:41:52.149Z,24.00
2022-11-16T12:44:43.071Z,24.75
2022-11-16T12:47:18.222Z,25.25
2022-11-16T12:50:11.016Z,22.00
2022-11-16T12:52:59.637Z,19.25
2022-11-16T12:55:42.699Z,15.50
2022-11-16T12:58:46.630Z,13.75
2022-11-16T13:01:28.401Z,18.25
2022-11-16T13:04:07.435Z,11.50
2022-11-16T13:06:42.677Z,11.00
2022-11-16T13:09:28.889Z,13.25
2022-11-16T13:12:03.172Z,11.25
2022-11-16T13:14:41.777Z,11.50
2022-11-16T13:17:17.868Z,12.00
2022-11-16T13:20:13.264Z,10.50
2022-11-16T13:26:04.877Z,12.75
2022-11-16T13:28:55.452Z,14.75
2022-11-16T13:31:45.370Z,14.25
2022-11-16T13:34:33.842Z,15.25
2022-11-16T13:37:23.782Z,16.25
2022-11-16T13:40:03.140Z,16.25
2022-11-16T13:42:38.261Z,12.00
2022-11-16T13:45:22.807Z,17.50
2022-11-16T13:47:56.323Z,19.50
2022-11-16T13:50:37.940Z,22.00
2022-11-16T13:54:17.538Z,24.00
2022-11-16T13:55:58.620Z,24.00
2022-11-16T13:58:31.243Z,22.25
2022-11-16T14:01:04.969Z,19.25
2022-11-16T14:03:38.500Z,23.75
2022-11-16T14:06:14.761Z,22.00
2022-11-16T14:08:54.205Z,21.75
2022-11-16T14:11:50.741Z,21.75
2022-11-16T14:14:42.802Z,18.00
2022-11-16T14:17:16.377Z,18.25
2022-11-16T14:19:52.766Z,6.75
2022-11-16T14:22:53.393Z,15.75
2022-11-16T14:25:35.703Z,18.50
2022-11-16T14:28:14.869Z,21.75
2022-11-16T14:30:57.161Z,18.75
2022-11-16T14:33:34.218Z,19.00
2022-11-16T14:36:11.554Z,20.50
2022-11-16T14:38:45.513Z,15.75
2022-11-16T14:41:25.237Z,22.25
2022-11-16T14:44:00.085Z,27.00
2022-11-16T14:46:35.928Z,22.00
2022-11-16T14:49:11.162Z,26.00
2022-11-16T14:51:50.423Z,30.25
2022-11-16T14:54:49.865Z,28.00
2022-11-16T14:57:23.263Z,28.25
2022-11-16T15:00:11.271Z,29.00
2022-11-16T15:02:44.052Z,30.75
2022-11-16T15:05:17.979Z,25.00
2022-11-16T15:07:51.373Z,27.25
2022-11-16T15:10:29.550Z,30.50
2022-11-16T15:13:00.079Z,29.75
2022-11-16T15:15:31.976Z,28.00
2022-11-16T15:21:24.805Z,26.75
2022-11-16T15:24:15.913Z,29.50
2022-11-16T15:26:33.337Z,25.25
2022-11-16T15:29:04.467Z,31.25
2022-11-16T15:31:37.479Z,25.00
2022-11-16T15:34:15.585Z,26.25
2022-11-16T15:36:47.511Z,29.00
2022-11-16T15:39:43.993Z,26.00
2022-11-16T15:42:16.192Z,27.50
2022-11-16T15:44:47.030Z,26.00
2022-11-16T15:47:18.572Z,27.25
2022-11-16T15:49:49.310Z,26.00
2022-11-16T15:52:41.777Z,22.75
2022-11-16T15:55:30.200Z,24.50
2022-11-16T15:58:21.513Z,23.25
2022-11-16T16:00:55.770Z,25.00
2022-11-16T16:03:32.019Z,25.00
2022-11-16T16:06:25.815Z,24.25
2022-11-16T16:09:09.219Z,23.50
2022-11-16T16:11:39.518Z,24.50
2022-11-16T16:14:15.202Z,29.25
2022-11-16T16:16:48.644Z,21.75
2022-11-16T16:19:27.609Z,23.75
2022-11-16T16:21:58.778Z,20.00
2022-11-16T16:24:40.507Z,24.00
2022-11-16T16:27:18.837Z,20.25
2022-11-16T16:29:52.267Z,22.25
2022-11-16T16:32:28.832Z,21.25
2022-11-16T16:35:10.915Z,17.75
2022-11-16T16:38:18.349Z,23.00
2022-11-16T16:40:55.494Z,20.50
2022-11-16T16:43:22.994Z,19.00
2022-11-16T16:46:12.810Z,17.25
2022-11-16T16:51:31.621Z,16.50
2022-11-16T16:54:18.807Z,12.50
2022-11-16T16:57:04.423Z,15.75
2022-11-16T16:59:38.362Z,15.25
2022-11-16T17:19:17.059Z,17.75
2022-11-16T17:21:47.621Z,20.25
2022-11-16T17:24:30.944Z,23.00
2022-11-16T17:27:11.698Z,20.50
2022-11-16T17:29:48.035Z,22.00
2022-11-16T17:32:24.490Z,18.00
2022-11-16T17:34:58.705Z,20.25
2022-11-16T17:37:32.011Z,18.25
2022-11-16T17:40:08.103Z,20.00
2022-11-16T17:42:38.920Z,1.00
2022-11-16T17:45:23.601Z,9.50
2022-11-16T17:47:56.182Z,17.50
2022-11-16T17:50:26.528Z,16.75
2022-11-16T17:58:45.853Z,12.00
2022-11-16T18:01:16.667Z,17.50
2022-11-16T18:03:47.037Z,14.75
2022-11-16T18:06:20.011Z,17.50
2022-11-16T18:08:51.042Z,19.25
2022-11-16T18:11:25.149Z,16.25
2022-11-16T18:13:59.645Z,16.00
2022-11-16T18:16:35.934Z,11.50
2022-11-16T18:19:13.692Z,11.25
2022-11-16T18:21:44.523Z,10.75
2022-11-16T18:24:15.282Z,9.50
2022-11-16T18:26:47.883Z,10.00
2022-11-16T18:29:18.147Z,6.50
2022-11-16T18:34:44.748Z,8.25
2022-11-16T18:37:22.162Z,10.25
2022-11-16T18:38:25.083Z,8.25
2022-11-16T18:40:18.744Z,9.00
2022-11-16T18:43:27.808Z,9.00
2022-11-16T18:46:12.795Z,5.75
2022-11-16T18:54:45.590Z,7.00
2022-11-16T18:57:25.072Z,2.00
2022-11-16T19:00:17.260Z,9.75
2022-11-16T19:02:54.038Z,4.00
2022-11-16T19:05:25.050Z,10.00
2022-11-16T19:07:59.554Z,9.75
2022-11-16T19:11:28.758Z,9.00
2022-11-16T19:13:37.989Z,8.75
2022-11-16T19:16:54.177Z,11.00
2022-11-16T19:19:14.084Z,11.25
2022-11-16T19:21:48.883Z,12.00
2022-11-16T19:24:22.818Z,9.75
2022-11-16T19:26:53.316Z,11.50
2022-11-16T19:29:27.661Z,9.75
2022-11-16T19:32:00.083Z,4.00
2022-11-16T19:34:33.499Z,13.75
2022-11-16T19:37:02.552Z,0.00
2022-11-16T19:39:33.436Z,16.75
2022-11-16T19:42:10.935Z,17.00
2022-11-16T19:48:29.284Z,16.50
2022-11-16T19:50:21.022Z,10.00
2022-11-16T19:52:54.418Z,17.00
2022-11-16T19:55:25.426Z,13.50
2022-11-16T19:57:57.289Z,14.25
2022-11-16T20:00:29.695Z,14.00
2022-11-16T20:06:09.858Z,8.50
2022-11-16T20:08:48.568Z,11.00
2022-11-16T20:11:21.568Z,9.50
2022-11-16T20:14:02.426Z,6.25
2022-11-16T20:16:39.228Z,9.00
2022-11-16T20:19:41.407Z,8.75
2022-11-16T20:21:58.602Z,5.00
2022-11-16T20:40:57.436Z,8.00
2022-11-16T20:43:32.273Z,10.00
2022-11-16T20:46:22.196Z,10.00
2022-11-16T20:49:55.988Z,10.00
2022-11-16T20:52:04.801Z,10.25
2022-11-16T21:01:39.628Z,10.00
2022-11-16T21:04:52.054Z,6.00
2022-11-16T21:07:11.313Z,10.50
2022-11-16T21:12:52.845Z,10.50
2022-11-16T21:24:51.531Z,9.50
2022-11-16T21:27:21.675Z,14.25
2022-11-16T21:29:51.955Z,8.50
2022-11-16T21:32:22.252Z,9.75
2022-11-16T21:34:53.012Z,11.25
2022-11-16T21:37:39.662Z,12.50
2022-11-16T21:40:14.461Z,10.00
2022-11-16T21:42:44.855Z,3.50
2022-11-16T21:45:15.221Z,10.00
2022-11-16T21:47:45.415Z,11.75
2022-11-16T21:50:35.262Z,12.00
2022-11-16T21:52:51.659Z,15.75
2022-11-16T21:55:21.791Z,12.50
2022-11-16T21:57:51.984Z,15.00
2022-11-16T22:00:29.694Z,16.00
2022-11-16T22:03:00.310Z,11.75
2022-11-16T22:05:30.667Z,12.75
2022-11-16T22:08:27.633Z,11.25
2022-11-16T22:10:58.592Z,15.75
2022-11-16T22:13:29.595Z,18.50
2022-11-16T22:16:01.336Z,18.50
2022-11-16T22:18:32.733Z,26.50
2022-11-16T22:21:04.391Z,30.00
2022-11-16T22:23:35.974Z,34.25
2022-11-16T22:26:11.196Z,33.75
2022-11-16T22:28:42.266Z,36.00
2022-11-16T22:31:14.708Z,33.00
2022-11-16T22:33:45.192Z,32.50
2022-11-16T22:36:16.941Z,28.75
2022-11-16T22:38:50.090Z,25.75
2022-11-16T22:41:20.494Z,22.25
2022-11-16T22:43:50.836Z,25.25
2022-11-16T22:46:21.176Z,23.00
2022-11-16T22:48:53.894Z,17.00
2022-11-16T22:51:27.237Z,17.25
2022-11-16T22:54:01.054Z,15.75
2022-11-16T22:56:33.031Z,17.25
2022-11-16T22:59:06.022Z,16.25
2022-11-16T23:01:37.647Z,17.00
2022-11-16T23:04:08.583Z,18.50
2022-11-16T23:06:38.950Z,17.00
2022-11-16T23:09:09.574Z,16.25
2022-11-16T23:11:43.045Z,20.50
2022-11-16T23:14:16.822Z,14.25
2022-11-16T23:16:48.271Z,19.25
2022-11-16T23:19:20.434Z,16.75
2022-11-16T23:21:50.681Z,16.25
2022-11-16T23:24:20.942Z,17.75
2022-11-16T23:26:51.714Z,19.75
2022-11-16T23:29:22.015Z,18.25
2022-11-16T23:31:52.400Z,19.25
2022-11-16T23:34:32.318Z,20.00
2022-11-16T23:37:05.784Z,17.25
2022-11-16T23:39:36.077Z,17.00
2022-11-16T23:42:07.592Z,17.75
2022-11-16T23:44:42.291Z,16.00
2022-11-16T23:47:12.790Z,19.00
2022-11-16T23:49:43.116Z,17.25
2022-11-16T23:52:13.829Z,19.50
2022-11-16T23:54:44.472Z,18.75
2022-11-16T23:57:15.045Z,19.75
2022-11-16T23:59:45.334Z,17.25
